sensor_id;sensor_type;location;lat;lon;timestamp;temperature;humidity
6724;DHT22;3399;52.530;13.304;2024-02-26T00:02:23;5.40;99.90
6724;DHT22;3399;52.530;13.304;2024-02-26T00:04:48;5.50;99.90
6724;DHT22;3399;52.530;13.304;2024-02-26T00:07:14;5.60;99.90
6724;DHT22;3399;52.530;13.304;2024-02-26T00:09:39;5.50;99.90
6724;DHT22;3399;52.530;13.304;2024-02-26T00:12:05;5.50;99.90
6724;DHT22;3399;52.530;13.304;2024-02-26T00:14:31;5.50;99.90
6724;DHT22;3399;52.530;13.304;2024-02-26T00:16:57;5.50;99.90
6724;DHT22;3399;52.530;13.304;2024-02-26T00:19:22;5.50;99.90
6724;DHT22;3399;52.530;13.304;2024-02-26T00:21:48;5.70;99.90
6724;DHT22;3399;52.530;13.304;2024-02-26T00:24:13;5.70;99.90
6724;DHT22;3399;52.530;13.304;2024-02-26T00:26:39;5.50;99.90
6724;DHT22;3399;52.530;13.304;2024-02-26T00:29:05;5.30;99.90
6724;DHT22;3399;52.530;13.304;2024-02-26T00:31:31;5.40;99.90
6724;DHT22;3399;52.530;13.304;2024-02-26T00:33:56;5.50;99.90
6724;DHT22;3399;52.530;13.304;2024-02-26T00:36:22;5.60;99.90
6724;DHT22;3399;52.530;13.304;2024-02-26T00:38:47;5.60;99.90
6724;DHT22;3399;52.530;13.304;2024-02-26T00:41:16;5.60;99.90
6724;DHT22;3399;52.530;13.304;2024-02-26T00:43:42;5.40;99.90
6724;DHT22;3399;52.530;13.304;2024-02-26T00:46:08;5.30;99.90
6724;DHT22;3399;52.530;13.304;2024-02-26T00:48:33;5.20;99.90
6724;DHT22;3399;52.530;13.304;2024-02-26T00:50:59;5.10;99.90
6724;DHT22;3399;52.530;13.304;2024-02-26T00:53:24;5.10;99.90
6724;DHT22;3399;52.530;13.304;2024-02-26T00:55:50;5.00;99.90
6724;DHT22;3399;52.530;13.304;2024-02-26T00:58:16;4.90;99.90
6724;DHT22;3399;52.530;13.304;2024-02-26T01:00:41;4.80;99.90
6724;DHT22;3399;52.530;13.304;2024-02-26T01:03:07;4.90;99.90
6724;DHT22;3399;52.530;13.304;2024-02-26T01:05:33;4.70;99.90
6724;DHT22;3399;52.530;13.304;2024-02-26T01:07:59;4.60;99.90
6724;DHT22;3399;52.530;13.304;2024-02-26T01:10:24;4.70;99.90
6724;DHT22;3399;52.530;13.304;2024-02-26T01:12:50;4.80;99.90
6724;DHT22;3399;52.530;13.304;2024-02-26T01:15:15;4.50;99.90
6724;DHT22;3399;52.530;13.304;2024-02-26T01:17:41;4.50;99.90
6724;DHT22;3399;52.530;13.304;2024-02-26T01:20:07;4.50;99.90
6724;DHT22;3399;52.530;13.304;2024-02-26T01:22:34;4.60;99.90
6724;DHT22;3399;52.530;13.304;2024-02-26T01:24:59;4.70;99.90
6724;DHT22;3399;52.530;13.304;2024-02-26T01:27:25;4.90;99.90
6724;DHT22;3399;52.530;13.304;2024-02-26T01:29:52;5.00;99.90
6724;DHT22;3399;52.530;13.304;2024-02-26T01:32:18;5.10;99.90
6724;DHT22;3399;52.530;13.304;2024-02-26T01:34:43;5.10;99.90
6724;DHT22;3399;52.530;13.304;2024-02-26T01:37:09;5.00;99.90
6724;DHT22;3399;52.530;13.304;2024-02-26T01:39:34;4.90;99.90
6724;DHT22;3399;52.530;13.304;2024-02-26T01:42:01;4.90;99.90
6724;DHT22;3399;52.530;13.304;2024-02-26T01:44:27;4.70;99.90
6724;DHT22;3399;52.530;13.304;2024-02-26T01:46:53;4.60;99.90
6724;DHT22;3399;52.530;13.304;2024-02-26T01:49:19;4.50;99.90
6724;DHT22;3399;52.530;13.304;2024-02-26T01:51:45;4.40;99.90
6724;DHT22;3399;52.530;13.304;2024-02-26T01:54:11;4.30;99.90
6724;DHT22;3399;52.530;13.304;2024-02-26T01:56:37;4.30;99.90
6724;DHT22;3399;52.530;13.304;2024-02-26T01:59:04;4.50;99.90
6724;DHT22;3399;52.530;13.304;2024-02-26T02:01:31;4.70;99.90
6724;DHT22;3399;52.530;13.304;2024-02-26T02:03:58;4.70;99.90
6724;DHT22;3399;52.530;13.304;2024-02-26T02:06:24;4.70;99.90
6724;DHT22;3399;52.530;13.304;2024-02-26T02:08:50;4.60;99.90
6724;DHT22;3399;52.530;13.304;2024-02-26T02:11:16;4.60;99.90
6724;DHT22;3399;52.530;13.304;2024-02-26T02:13:42;4.60;99.90
6724;DHT22;3399;52.530;13.304;2024-02-26T02:16:08;4.50;99.90
6724;DHT22;3399;52.530;13.304;2024-02-26T02:18:33;4.60;99.90
6724;DHT22;3399;52.530;13.304;2024-02-26T02:21:02;4.50;99.90
6724;DHT22;3399;52.530;13.304;2024-02-26T02:23:28;4.40;99.90
6724;DHT22;3399;52.530;13.304;2024-02-26T02:25:54;4.40;99.90
6724;DHT22;3399;52.530;13.304;2024-02-26T02:28:21;4.40;99.90
6724;DHT22;3399;52.530;13.304;2024-02-26T02:30:48;4.50;99.90
6724;DHT22;3399;52.530;13.304;2024-02-26T02:33:15;4.50;99.90
6724;DHT22;3399;52.530;13.304;2024-02-26T02:35:41;4.50;99.90
6724;DHT22;3399;52.530;13.304;2024-02-26T02:38:06;4.40;99.90
6724;DHT22;3399;52.530;13.304;2024-02-26T02:40:32;4.30;99.90
6724;DHT22;3399;52.530;13.304;2024-02-26T02:42:57;4.20;99.90
6724;DHT22;3399;52.530;13.304;2024-02-26T02:45:24;4.10;99.90
6724;DHT22;3399;52.530;13.304;2024-02-26T02:47:49;3.70;99.90
6724;DHT22;3399;52.530;13.304;2024-02-26T02:50:15;3.60;99.90
6724;DHT22;3399;52.530;13.304;2024-02-26T02:52:40;3.70;99.90
6724;DHT22;3399;52.530;13.304;2024-02-26T02:55:06;3.80;99.90
6724;DHT22;3399;52.530;13.304;2024-02-26T02:57:32;3.80;99.90
6724;DHT22;3399;52.530;13.304;2024-02-26T02:59:58;4.10;99.90
6724;DHT22;3399;52.530;13.304;2024-02-26T03:02:23;4.20;99.90
6724;DHT22;3399;52.530;13.304;2024-02-26T03:04:50;4.30;99.90
6724;DHT22;3399;52.530;13.304;2024-02-26T03:07:16;4.30;99.90
6724;DHT22;3399;52.530;13.304;2024-02-26T03:09:41;4.30;99.90
6724;DHT22;3399;52.530;13.304;2024-02-26T03:12:07;4.30;99.90
6724;DHT22;3399;52.530;13.304;2024-02-26T03:14:33;4.20;99.90
6724;DHT22;3399;52.530;13.304;2024-02-26T03:16:58;4.10;99.90
6724;DHT22;3399;52.530;13.304;2024-02-26T03:19:24;4.10;99.90
6724;DHT22;3399;52.530;13.304;2024-02-26T03:21:49;4.00;99.90
6724;DHT22;3399;52.530;13.304;2024-02-26T03:24:15;3.90;99.90
6724;DHT22;3399;52.530;13.304;2024-02-26T03:26:40;3.90;99.90
6724;DHT22;3399;52.530;13.304;2024-02-26T03:29:06;3.80;99.90
6724;DHT22;3399;52.530;13.304;2024-02-26T03:31:31;3.80;99.90
6724;DHT22;3399;52.530;13.304;2024-02-26T03:33:57;3.90;99.90
6724;DHT22;3399;52.530;13.304;2024-02-26T03:36:22;3.90;99.90
6724;DHT22;3399;52.530;13.304;2024-02-26T03:38:48;4.00;99.90
6724;DHT22;3399;52.530;13.304;2024-02-26T03:41:14;4.20;99.90
6724;DHT22;3399;52.530;13.304;2024-02-26T03:43:40;4.20;99.90
6724;DHT22;3399;52.530;13.304;2024-02-26T03:46:08;4.20;99.90
6724;DHT22;3399;52.530;13.304;2024-02-26T03:48:36;4.10;99.90
6724;DHT22;3399;52.530;13.304;2024-02-26T03:51:02;4.10;99.90
6724;DHT22;3399;52.530;13.304;2024-02-26T03:53:27;4.20;99.90
6724;DHT22;3399;52.530;13.304;2024-02-26T03:55:53;4.20;99.90
6724;DHT22;3399;52.530;13.304;2024-02-26T03:58:20;4.10;99.90
6724;DHT22;3399;52.530;13.304;2024-02-26T04:00:46;4.00;99.90
6724;DHT22;3399;52.530;13.304;2024-02-26T04:03:13;3.90;99.90
6724;DHT22;3399;52.530;13.304;2024-02-26T04:05:38;3.70;99.90
6724;DHT22;3399;52.530;13.304;2024-02-26T04:08:05;3.60;99.90
6724;DHT22;3399;52.530;13.304;2024-02-26T04:10:32;3.20;99.90
6724;DHT22;3399;52.530;13.304;2024-02-26T04:13:00;3.20;99.90
6724;DHT22;3399;52.530;13.304;2024-02-26T04:15:25;3.30;99.90
6724;DHT22;3399;52.530;13.304;2024-02-26T04:17:51;3.40;99.90
6724;DHT22;3399;52.530;13.304;2024-02-26T04:20:16;3.40;99.90
6724;DHT22;3399;52.530;13.304;2024-02-26T04:22:42;3.60;99.90
6724;DHT22;3399;52.530;13.304;2024-02-26T04:25:08;3.70;99.90
6724;DHT22;3399;52.530;13.304;2024-02-26T04:27:34;3.80;99.90
6724;DHT22;3399;52.530;13.304;2024-02-26T04:29:59;3.70;99.90
6724;DHT22;3399;52.530;13.304;2024-02-26T04:32:25;3.70;99.90
6724;DHT22;3399;52.530;13.304;2024-02-26T04:34:50;3.80;99.90
6724;DHT22;3399;52.530;13.304;2024-02-26T04:37:15;3.80;99.90
6724;DHT22;3399;52.530;13.304;2024-02-26T04:39:41;3.90;99.90
6724;DHT22;3399;52.530;13.304;2024-02-26T04:42:06;3.80;99.90
6724;DHT22;3399;52.530;13.304;2024-02-26T04:44:32;3.90;99.90
6724;DHT22;3399;52.530;13.304;2024-02-26T04:46:58;3.90;99.90
6724;DHT22;3399;52.530;13.304;2024-02-26T04:49:23;4.00;99.90
6724;DHT22;3399;52.530;13.304;2024-02-26T04:51:49;4.00;99.90
6724;DHT22;3399;52.530;13.304;2024-02-26T04:54:14;4.10;99.90
6724;DHT22;3399;52.530;13.304;2024-02-26T04:56:40;4.20;99.90
6724;DHT22;3399;52.530;13.304;2024-02-26T04:59:05;4.20;99.90
6724;DHT22;3399;52.530;13.304;2024-02-26T05:01:31;4.30;99.90
6724;DHT22;3399;52.530;13.304;2024-02-26T05:03:56;4.20;99.90
6724;DHT22;3399;52.530;13.304;2024-02-26T05:06:22;4.10;99.90
6724;DHT22;3399;52.530;13.304;2024-02-26T05:08:47;4.00;99.90
6724;DHT22;3399;52.530;13.304;2024-02-26T05:11:13;3.80;99.90
6724;DHT22;3399;52.530;13.304;2024-02-26T05:13:38;3.70;99.90
6724;DHT22;3399;52.530;13.304;2024-02-26T05:16:06;3.70;99.90
6724;DHT22;3399;52.530;13.304;2024-02-26T05:18:32;3.60;99.90
6724;DHT22;3399;52.530;13.304;2024-02-26T05:20:57;3.50;99.90
6724;DHT22;3399;52.530;13.304;2024-02-26T05:23:23;3.50;99.90
6724;DHT22;3399;52.530;13.304;2024-02-26T05:25:48;3.60;99.90
6724;DHT22;3399;52.530;13.304;2024-02-26T05:28:14;3.70;99.90
6724;DHT22;3399;52.530;13.304;2024-02-26T05:30:41;3.80;99.90
6724;DHT22;3399;52.530;13.304;2024-02-26T05:33:07;3.90;99.90
6724;DHT22;3399;52.530;13.304;2024-02-26T05:35:33;4.00;99.90
6724;DHT22;3399;52.530;13.304;2024-02-26T05:37:58;4.00;99.90
6724;DHT22;3399;52.530;13.304;2024-02-26T05:40:24;3.90;99.90
6724;DHT22;3399;52.530;13.304;2024-02-26T05:42:49;3.80;99.90
6724;DHT22;3399;52.530;13.304;2024-02-26T05:45:15;3.70;99.90
6724;DHT22;3399;52.530;13.304;2024-02-26T05:47:40;3.70;99.90
6724;DHT22;3399;52.530;13.304;2024-02-26T05:50:10;3.90;99.90
6724;DHT22;3399;52.530;13.304;2024-02-26T05:52:39;3.90;99.90
6724;DHT22;3399;52.530;13.304;2024-02-26T05:55:05;3.80;99.90
6724;DHT22;3399;52.530;13.304;2024-02-26T05:57:34;3.80;99.90
6724;DHT22;3399;52.530;13.304;2024-02-26T06:00:00;3.80;99.90
6724;DHT22;3399;52.530;13.304;2024-02-26T06:02:29;3.70;99.90
6724;DHT22;3399;52.530;13.304;2024-02-26T06:04:55;3.70;99.90
6724;DHT22;3399;52.530;13.304;2024-02-26T06:07:20;3.70;99.90
6724;DHT22;3399;52.530;13.304;2024-02-26T06:09:46;3.70;99.90
6724;DHT22;3399;52.530;13.304;2024-02-26T06:12:11;3.70;99.90
6724;DHT22;3399;52.530;13.304;2024-02-26T06:14:37;3.70;99.90
6724;DHT22;3399;52.530;13.304;2024-02-26T06:17:02;3.60;99.90
6724;DHT22;3399;52.530;13.304;2024-02-26T06:19:28;3.70;99.90
6724;DHT22;3399;52.530;13.304;2024-02-26T06:21:53;3.90;99.90
6724;DHT22;3399;52.530;13.304;2024-02-26T06:24:19;4.00;99.90
6724;DHT22;3399;52.530;13.304;2024-02-26T06:26:46;4.10;99.90
6724;DHT22;3399;52.530;13.304;2024-02-26T06:29:11;4.10;99.90
6724;DHT22;3399;52.530;13.304;2024-02-26T06:31:37;4.20;99.90
6724;DHT22;3399;52.530;13.304;2024-02-26T06:34:02;4.10;99.90
6724;DHT22;3399;52.530;13.304;2024-02-26T06:36:28;4.10;99.90
6724;DHT22;3399;52.530;13.304;2024-02-26T06:38:54;4.00;99.90
6724;DHT22;3399;52.530;13.304;2024-02-26T06:41:19;3.90;99.90
6724;DHT22;3399;52.530;13.304;2024-02-26T06:43:45;3.90;99.90
6724;DHT22;3399;52.530;13.304;2024-02-26T06:46:11;3.90;99.90
6724;DHT22;3399;52.530;13.304;2024-02-26T06:48:36;4.00;99.90
6724;DHT22;3399;52.530;13.304;2024-02-26T06:51:02;4.10;99.90
6724;DHT22;3399;52.530;13.304;2024-02-26T06:53:28;4.00;99.90
6724;DHT22;3399;52.530;13.304;2024-02-26T06:55:53;4.00;99.90
6724;DHT22;3399;52.530;13.304;2024-02-26T06:58:19;4.00;99.90
6724;DHT22;3399;52.530;13.304;2024-02-26T07:00:44;4.00;99.90
6724;DHT22;3399;52.530;13.304;2024-02-26T07:03:11;4.10;99.90
6724;DHT22;3399;52.530;13.304;2024-02-26T07:05:36;4.20;99.90
6724;DHT22;3399;52.530;13.304;2024-02-26T07:08:02;4.20;99.90
6724;DHT22;3399;52.530;13.304;2024-02-26T07:10:27;4.40;99.90
6724;DHT22;3399;52.530;13.304;2024-02-26T07:12:53;4.50;99.90
6724;DHT22;3399;52.530;13.304;2024-02-26T07:15:19;4.60;99.90
6724;DHT22;3399;52.530;13.304;2024-02-26T07:17:44;4.70;99.90
6724;DHT22;3399;52.530;13.304;2024-02-26T07:20:13;4.80;99.90
6724;DHT22;3399;52.530;13.304;2024-02-26T07:22:38;4.90;99.90
6724;DHT22;3399;52.530;13.304;2024-02-26T07:25:04;5.00;99.90
6724;DHT22;3399;52.530;13.304;2024-02-26T07:27:33;4.90;99.90
6724;DHT22;3399;52.530;13.304;2024-02-26T07:29:58;4.90;99.90
6724;DHT22;3399;52.530;13.304;2024-02-26T07:32:24;5.00;99.90
6724;DHT22;3399;52.530;13.304;2024-02-26T07:34:49;5.20;99.90
6724;DHT22;3399;52.530;13.304;2024-02-26T07:37:15;5.40;99.90
6724;DHT22;3399;52.530;13.304;2024-02-26T07:39:41;5.60;99.90
6724;DHT22;3399;52.530;13.304;2024-02-26T07:42:07;5.70;99.90
6724;DHT22;3399;52.530;13.304;2024-02-26T07:44:33;5.80;99.90
6724;DHT22;3399;52.530;13.304;2024-02-26T07:46:59;5.90;99.90
6724;DHT22;3399;52.530;13.304;2024-02-26T07:49:24;6.00;99.90
6724;DHT22;3399;52.530;13.304;2024-02-26T07:51:50;6.00;99.90
6724;DHT22;3399;52.530;13.304;2024-02-26T07:54:15;6.00;99.90
6724;DHT22;3399;52.530;13.304;2024-02-26T07:56:41;5.80;99.90
6724;DHT22;3399;52.530;13.304;2024-02-26T07:59:07;5.80;99.90
6724;DHT22;3399;52.530;13.304;2024-02-26T08:01:33;5.80;99.90
6724;DHT22;3399;52.530;13.304;2024-02-26T08:03:59;6.00;99.90
6724;DHT22;3399;52.530;13.304;2024-02-26T08:06:25;6.10;99.90
6724;DHT22;3399;52.530;13.304;2024-02-26T08:08:51;6.10;99.90
6724;DHT22;3399;52.530;13.304;2024-02-26T08:11:16;6.20;99.90
6724;DHT22;3399;52.530;13.304;2024-02-26T08:13:42;6.40;99.90
6724;DHT22;3399;52.530;13.304;2024-02-26T08:16:08;6.40;99.90
6724;DHT22;3399;52.530;13.304;2024-02-26T08:18:33;6.40;99.90
6724;DHT22;3399;52.530;13.304;2024-02-26T08:20:58;6.20;99.90
6724;DHT22;3399;52.530;13.304;2024-02-26T08:23:24;6.50;99.90
6724;DHT22;3399;52.530;13.304;2024-02-26T08:25:50;6.40;99.90
6724;DHT22;3399;52.530;13.304;2024-02-26T08:28:16;6.50;99.90
6724;DHT22;3399;52.530;13.304;2024-02-26T08:30:43;6.70;99.90
6724;DHT22;3399;52.530;13.304;2024-02-26T08:33:09;6.70;99.90
6724;DHT22;3399;52.530;13.304;2024-02-26T08:35:35;6.70;99.90
6724;DHT22;3399;52.530;13.304;2024-02-26T08:38:01;6.70;99.90
6724;DHT22;3399;52.530;13.304;2024-02-26T08:40:26;6.80;99.90
6724;DHT22;3399;52.530;13.304;2024-02-26T08:42:52;6.90;99.90
6724;DHT22;3399;52.530;13.304;2024-02-26T08:45:18;7.00;99.90
6724;DHT22;3399;52.530;13.304;2024-02-26T08:47:45;6.80;99.90
6724;DHT22;3399;52.530;13.304;2024-02-26T08:50:10;7.10;99.90
6724;DHT22;3399;52.530;13.304;2024-02-26T08:52:37;7.00;99.90
6724;DHT22;3399;52.530;13.304;2024-02-26T08:55:03;7.30;99.90
6724;DHT22;3399;52.530;13.304;2024-02-26T08:57:30;7.30;99.90
6724;DHT22;3399;52.530;13.304;2024-02-26T08:59:58;7.40;99.90
6724;DHT22;3399;52.530;13.304;2024-02-26T09:02:23;7.60;99.90
6724;DHT22;3399;52.530;13.304;2024-02-26T09:04:48;7.90;99.90
6724;DHT22;3399;52.530;13.304;2024-02-26T09:07:16;8.00;99.90
6724;DHT22;3399;52.530;13.304;2024-02-26T09:09:41;8.30;99.90
6724;DHT22;3399;52.530;13.304;2024-02-26T09:12:08;8.20;99.90
6724;DHT22;3399;52.530;13.304;2024-02-26T09:14:33;8.00;99.90
6724;DHT22;3399;52.530;13.304;2024-02-26T09:17:00;8.30;99.90
6724;DHT22;3399;52.530;13.304;2024-02-26T09:19:27;8.40;99.90
6724;DHT22;3399;52.530;13.304;2024-02-26T09:21:53;8.40;99.90
6724;DHT22;3399;52.530;13.304;2024-02-26T09:24:23;8.40;99.90
6724;DHT22;3399;52.530;13.304;2024-02-26T09:26:48;8.30;99.90
6724;DHT22;3399;52.530;13.304;2024-02-26T09:29:14;8.50;99.90
6724;DHT22;3399;52.530;13.304;2024-02-26T09:31:39;8.50;99.90
6724;DHT22;3399;52.530;13.304;2024-02-26T09:34:08;8.50;99.90
6724;DHT22;3399;52.530;13.304;2024-02-26T09:36:34;8.60;99.90
6724;DHT22;3399;52.530;13.304;2024-02-26T09:38:59;8.60;99.90
6724;DHT22;3399;52.530;13.304;2024-02-26T09:41:28;8.60;99.90
6724;DHT22;3399;52.530;13.304;2024-02-26T09:43:56;8.60;99.90
6724;DHT22;3399;52.530;13.304;2024-02-26T09:46:25;8.70;99.90
6724;DHT22;3399;52.530;13.304;2024-02-26T09:48:51;8.80;99.90
6724;DHT22;3399;52.530;13.304;2024-02-26T09:51:18;8.90;99.90
6724;DHT22;3399;52.530;13.304;2024-02-26T09:53:44;8.80;99.90
6724;DHT22;3399;52.530;13.304;2024-02-26T09:56:12;8.70;99.90
6724;DHT22;3399;52.530;13.304;2024-02-26T09:58:39;8.60;99.90
6724;DHT22;3399;52.530;13.304;2024-02-26T10:01:11;8.80;99.90
6724;DHT22;3399;52.530;13.304;2024-02-26T10:03:43;9.00;99.90
6724;DHT22;3399;52.530;13.304;2024-02-26T10:06:11;9.20;99.90
6724;DHT22;3399;52.530;13.304;2024-02-26T10:08:36;9.40;99.90
6724;DHT22;3399;52.530;13.304;2024-02-26T10:11:09;9.20;99.90
6724;DHT22;3399;52.530;13.304;2024-02-26T10:13:35;9.30;99.90
6724;DHT22;3399;52.530;13.304;2024-02-26T10:16:02;9.40;99.90
6724;DHT22;3399;52.530;13.304;2024-02-26T10:18:45;9.30;99.90
6724;DHT22;3399;52.530;13.304;2024-02-26T10:21:11;9.50;99.90
6724;DHT22;3399;52.530;13.304;2024-02-26T10:23:36;9.50;99.90
6724;DHT22;3399;52.530;13.304;2024-02-26T10:26:02;9.60;99.90
6724;DHT22;3399;52.530;13.304;2024-02-26T10:28:29;9.80;99.90
6724;DHT22;3399;52.530;13.304;2024-02-26T10:30:55;9.70;99.90
6724;DHT22;3399;52.530;13.304;2024-02-26T10:33:21;10.00;99.90
6724;DHT22;3399;52.530;13.304;2024-02-26T10:35:47;10.20;99.90
6724;DHT22;3399;52.530;13.304;2024-02-26T10:38:13;10.20;99.90
6724;DHT22;3399;52.530;13.304;2024-02-26T10:40:39;10.20;99.90
6724;DHT22;3399;52.530;13.304;2024-02-26T10:43:04;10.20;99.90
6724;DHT22;3399;52.530;13.304;2024-02-26T10:45:31;10.50;99.90
6724;DHT22;3399;52.530;13.304;2024-02-26T10:47:57;10.50;99.90
6724;DHT22;3399;52.530;13.304;2024-02-26T10:50:22;10.60;99.90
6724;DHT22;3399;52.530;13.304;2024-02-26T10:52:48;10.90;99.90
6724;DHT22;3399;52.530;13.304;2024-02-26T10:55:16;11.00;99.90
6724;DHT22;3399;52.530;13.304;2024-02-26T10:57:45;11.20;99.90
6724;DHT22;3399;52.530;13.304;2024-02-26T11:00:15;11.00;99.90
6724;DHT22;3399;52.530;13.304;2024-02-26T11:02:41;10.80;99.90
6724;DHT22;3399;52.530;13.304;2024-02-26T11:05:08;11.10;99.90
6724;DHT22;3399;52.530;13.304;2024-02-26T11:07:40;11.00;99.90
6724;DHT22;3399;52.530;13.304;2024-02-26T11:10:07;11.00;99.90
6724;DHT22;3399;52.530;13.304;2024-02-26T11:12:33;11.50;99.90
6724;DHT22;3399;52.530;13.304;2024-02-26T11:15:01;11.90;99.90
6724;DHT22;3399;52.530;13.304;2024-02-26T11:17:28;12.00;99.90
6724;DHT22;3399;52.530;13.304;2024-02-26T11:19:57;12.10;99.90
6724;DHT22;3399;52.530;13.304;2024-02-26T11:22:28;11.90;99.90
6724;DHT22;3399;52.530;13.304;2024-02-26T11:24:54;11.90;99.90
6724;DHT22;3399;52.530;13.304;2024-02-26T11:27:25;11.50;99.90
6724;DHT22;3399;52.530;13.304;2024-02-26T11:29:53;11.60;99.90
6724;DHT22;3399;52.530;13.304;2024-02-26T11:32:20;12.10;99.90
6724;DHT22;3399;52.530;13.304;2024-02-26T11:34:46;12.60;99.90
6724;DHT22;3399;52.530;13.304;2024-02-26T11:37:16;12.70;99.90
6724;DHT22;3399;52.530;13.304;2024-02-26T11:39:42;12.70;99.90
6724;DHT22;3399;52.530;13.304;2024-02-26T11:42:13;12.50;99.90
6724;DHT22;3399;52.530;13.304;2024-02-26T11:44:39;12.50;99.90
6724;DHT22;3399;52.530;13.304;2024-02-26T11:47:18;12.60;99.90
6724;DHT22;3399;52.530;13.304;2024-02-26T11:49:44;12.60;99.90
6724;DHT22;3399;52.530;13.304;2024-02-26T11:52:10;12.60;99.90
6724;DHT22;3399;52.530;13.304;2024-02-26T11:54:46;12.20;99.90
6724;DHT22;3399;52.530;13.304;2024-02-26T11:57:29;12.30;99.90
6724;DHT22;3399;52.530;13.304;2024-02-26T11:59:56;12.20;99.90
6724;DHT22;3399;52.530;13.304;2024-02-26T12:02:47;12.60;99.90
6724;DHT22;3399;52.530;13.304;2024-02-26T12:05:20;12.60;99.90
6724;DHT22;3399;52.530;13.304;2024-02-26T12:07:52;12.90;99.90
6724;DHT22;3399;52.530;13.304;2024-02-26T12:12:59;12.10;99.90
6724;DHT22;3399;52.530;13.304;2024-02-26T12:15:37;12.60;99.90
6724;DHT22;3399;52.530;13.304;2024-02-26T12:18:04;12.30;99.90
6724;DHT22;3399;52.530;13.304;2024-02-26T12:20:31;12.50;99.90
6724;DHT22;3399;52.530;13.304;2024-02-26T12:22:57;12.50;99.90
6724;DHT22;3399;52.530;13.304;2024-02-26T12:25:27;12.60;99.90
6724;DHT22;3399;52.530;13.304;2024-02-26T12:27:53;12.60;99.90
6724;DHT22;3399;52.530;13.304;2024-02-26T12:30:19;12.90;99.90
6724;DHT22;3399;52.530;13.304;2024-02-26T12:32:49;13.20;99.90
6724;DHT22;3399;52.530;13.304;2024-02-26T12:35:15;13.00;99.90
6724;DHT22;3399;52.530;13.304;2024-02-26T12:37:42;13.00;99.70
6724;DHT22;3399;52.530;13.304;2024-02-26T12:40:09;13.50;99.90
6724;DHT22;3399;52.530;13.304;2024-02-26T12:42:35;13.50;99.50
6724;DHT22;3399;52.530;13.304;2024-02-26T12:45:11;13.60;99.00
6724;DHT22;3399;52.530;13.304;2024-02-26T12:47:40;14.20;97.80
6724;DHT22;3399;52.530;13.304;2024-02-26T12:50:07;14.50;95.70
6724;DHT22;3399;52.530;13.304;2024-02-26T12:52:42;14.60;95.80
6724;DHT22;3399;52.530;13.304;2024-02-26T12:55:09;14.40;94.50
6724;DHT22;3399;52.530;13.304;2024-02-26T12:57:38;13.60;95.50
6724;DHT22;3399;52.530;13.304;2024-02-26T13:00:08;13.90;96.00
6724;DHT22;3399;52.530;13.304;2024-02-26T13:02:36;13.80;94.70
6724;DHT22;3399;52.530;13.304;2024-02-26T13:05:04;13.80;95.00
6724;DHT22;3399;52.530;13.304;2024-02-26T13:07:31;14.00;94.00
6724;DHT22;3399;52.530;13.304;2024-02-26T13:09:56;14.00;93.50
6724;DHT22;3399;52.530;13.304;2024-02-26T13:12:22;13.90;94.10
6724;DHT22;3399;52.530;13.304;2024-02-26T13:15:01;13.90;94.60
6724;DHT22;3399;52.530;13.304;2024-02-26T13:17:27;13.50;94.60
6724;DHT22;3399;52.530;13.304;2024-02-26T13:19:54;13.40;94.90
6724;DHT22;3399;52.530;13.304;2024-02-26T13:22:23;13.70;93.90
6724;DHT22;3399;52.530;13.304;2024-02-26T13:24:56;14.00;92.50
6724;DHT22;3399;52.530;13.304;2024-02-26T13:27:25;13.30;93.90
6724;DHT22;3399;52.530;13.304;2024-02-26T13:30:11;13.20;94.70
6724;DHT22;3399;52.530;13.304;2024-02-26T13:32:38;13.10;93.60
6724;DHT22;3399;52.530;13.304;2024-02-26T13:35:11;13.00;93.70
6724;DHT22;3399;52.530;13.304;2024-02-26T13:37:37;12.50;93.80
6724;DHT22;3399;52.530;13.304;2024-02-26T13:40:08;12.40;93.90
6724;DHT22;3399;52.530;13.304;2024-02-26T13:42:35;12.70;93.20
6724;DHT22;3399;52.530;13.304;2024-02-26T13:45:01;12.90;92.10
6724;DHT22;3399;52.530;13.304;2024-02-26T13:47:27;12.80;90.90
6724;DHT22;3399;52.530;13.304;2024-02-26T13:49:52;12.80;91.10
6724;DHT22;3399;52.530;13.304;2024-02-26T13:52:18;13.00;91.40
6724;DHT22;3399;52.530;13.304;2024-02-26T13:54:45;12.80;90.70
6724;DHT22;3399;52.530;13.304;2024-02-26T13:57:11;12.50;90.60
6724;DHT22;3399;52.530;13.304;2024-02-26T13:59:37;12.50;91.50
6724;DHT22;3399;52.530;13.304;2024-02-26T14:02:03;12.40;91.70
6724;DHT22;3399;52.530;13.304;2024-02-26T14:04:29;12.30;91.50
6724;DHT22;3399;52.530;13.304;2024-02-26T14:06:55;12.10;91.50
6724;DHT22;3399;52.530;13.304;2024-02-26T14:09:20;12.30;91.60
6724;DHT22;3399;52.530;13.304;2024-02-26T14:11:46;12.50;91.80
6724;DHT22;3399;52.530;13.304;2024-02-26T14:14:11;12.50;91.70
6724;DHT22;3399;52.530;13.304;2024-02-26T14:16:37;12.60;92.00
6724;DHT22;3399;52.530;13.304;2024-02-26T14:19:02;12.70;90.80
6724;DHT22;3399;52.530;13.304;2024-02-26T14:21:28;12.80;91.20
6724;DHT22;3399;52.530;13.304;2024-02-26T14:23:55;12.60;91.30
6724;DHT22;3399;52.530;13.304;2024-02-26T14:26:22;12.10;92.30
6724;DHT22;3399;52.530;13.304;2024-02-26T14:28:47;12.30;92.30
6724;DHT22;3399;52.530;13.304;2024-02-26T14:31:13;12.30;92.60
6724;DHT22;3399;52.530;13.304;2024-02-26T14:33:39;12.30;93.00
6724;DHT22;3399;52.530;13.304;2024-02-26T14:36:06;12.20;93.00
6724;DHT22;3399;52.530;13.304;2024-02-26T14:38:32;12.20;93.50
6724;DHT22;3399;52.530;13.304;2024-02-26T14:40:57;12.30;93.20
6724;DHT22;3399;52.530;13.304;2024-02-26T14:43:23;12.10;94.90
6724;DHT22;3399;52.530;13.304;2024-02-26T14:45:48;12.10;95.00
6724;DHT22;3399;52.530;13.304;2024-02-26T14:48:14;12.10;94.60
6724;DHT22;3399;52.530;13.304;2024-02-26T14:50:39;11.90;94.60
6724;DHT22;3399;52.530;13.304;2024-02-26T14:53:05;12.10;94.60
6724;DHT22;3399;52.530;13.304;2024-02-26T14:55:30;12.10;94.40
6724;DHT22;3399;52.530;13.304;2024-02-26T14:57:56;11.90;94.70
6724;DHT22;3399;52.530;13.304;2024-02-26T15:00:21;11.70;95.30
6724;DHT22;3399;52.530;13.304;2024-02-26T15:02:47;11.60;95.60
6724;DHT22;3399;52.530;13.304;2024-02-26T15:05:12;11.50;96.00
6724;DHT22;3399;52.530;13.304;2024-02-26T15:07:38;11.70;96.50
6724;DHT22;3399;52.530;13.304;2024-02-26T15:10:06;11.50;96.90
6724;DHT22;3399;52.530;13.304;2024-02-26T15:12:32;11.40;97.20
6724;DHT22;3399;52.530;13.304;2024-02-26T15:14:58;11.40;97.60
6724;DHT22;3399;52.530;13.304;2024-02-26T15:17:23;11.30;98.10
6724;DHT22;3399;52.530;13.304;2024-02-26T15:19:49;11.40;97.90
6724;DHT22;3399;52.530;13.304;2024-02-26T15:22:15;11.50;98.20
6724;DHT22;3399;52.530;13.304;2024-02-26T15:24:43;11.60;98.00
6724;DHT22;3399;52.530;13.304;2024-02-26T15:27:09;11.60;98.00
6724;DHT22;3399;52.530;13.304;2024-02-26T15:29:36;11.40;98.80
6724;DHT22;3399;52.530;13.304;2024-02-26T15:32:02;11.40;98.80
6724;DHT22;3399;52.530;13.304;2024-02-26T15:34:28;11.50;98.90
6724;DHT22;3399;52.530;13.304;2024-02-26T15:36:53;11.30;99.10
6724;DHT22;3399;52.530;13.304;2024-02-26T15:39:19;11.40;99.10
6724;DHT22;3399;52.530;13.304;2024-02-26T15:41:46;11.40;99.40
6724;DHT22;3399;52.530;13.304;2024-02-26T15:44:11;11.50;99.10
6724;DHT22;3399;52.530;13.304;2024-02-26T15:49:05;11.50;99.60
6724;DHT22;3399;52.530;13.304;2024-02-26T15:51:30;11.40;99.70
6724;DHT22;3399;52.530;13.304;2024-02-26T15:53:56;11.30;99.90
6724;DHT22;3399;52.530;13.304;2024-02-26T15:56:21;11.30;99.90
6724;DHT22;3399;52.530;13.304;2024-02-26T15:58:49;11.10;99.90